Time;durP1;ratioP1;P1;durP2;ratioP2;P2;SDS_P1;SDS_P2;PMS_P1;PMS_P2;Temp;Humidity;BMP_temperature;BMP_pressure;BME280_temperature;BME280_humidity;BME280_pressure;Samples;Min_cycle;Max_cycle;Signal;HPM_P1;HPM_P2
2021/05/28 00:01:59;;;;;;;1999.90;999.90;;;9.80;99.90;;;;;;5037039;28;20856;-83
2021/05/28 00:04:24;;;;;;;1999.90;999.90;;;9.70;99.90;;;;;;5037003;28;20190;-85
2021/05/28 00:06:50;;;;;;;1999.90;999.90;;;9.70;99.90;;;;;;5035209;28;20189;-86
2021/05/28 00:09:16;;;;;;;1999.90;999.90;;;9.70;99.90;;;;;;5035655;28;20210;-85
2021/05/28 00:11:42;;;;;;;1999.90;999.90;;;9.70;99.90;;;;;;5036853;28;20260;-86
2021/05/28 00:14:08;;;;;;;1999.90;999.90;;;9.70;99.90;;;;;;5023798;28;20177;-85
2021/05/28 00:16:34;;;;;;;1999.90;999.90;;;9.70;99.90;;;;;;5036541;28;20185;-85
2021/05/28 00:19:00;;;;;;;1999.90;999.90;;;9.60;99.90;;;;;;5035176;28;20247;-85
2021/05/28 00:21:25;;;;;;;1999.90;999.90;;;9.70;99.90;;;;;;5037543;28;20284;-85
2021/05/28 00:23:51;;;;;;;1999.90;999.90;;;9.60;99.90;;;;;;5039857;28;20192;-84
2021/05/28 00:26:16;;;;;;;1999.90;999.90;;;9.60;99.90;;;;;;5039752;28;20191;-83
2021/05/28 00:28:47;;;;;;;1999.90;999.90;;;9.60;99.90;;;;;;5040334;28;20260;-84
2021/05/28 00:31:13;;;;;;;1999.90;999.90;;;9.50;99.90;;;;;;5040847;28;20707;-84
2021/05/28 00:33:39;;;;;;;1999.90;999.90;;;9.50;99.90;;;;;;5042084;28;20178;-84
2021/05/28 00:36:04;;;;;;;1999.90;999.90;;;9.50;99.90;;;;;;5042509;28;20185;-86
2021/05/28 00:38:30;;;;;;;1999.90;999.90;;;9.50;99.90;;;;;;5041643;28;20240;-84
2021/05/28 00:40:56;;;;;;;1999.90;999.90;;;9.40;99.90;;;;;;5041540;28;20237;-84
2021/05/28 00:43:21;;;;;;;1999.90;999.90;;;9.40;99.90;;;;;;5042741;28;20187;-85
2021/05/28 00:45:48;;;;;;;1999.90;999.90;;;9.50;99.90;;;;;;5040555;28;20198;-83
2021/05/28 00:48:14;;;;;;;1999.90;999.90;;;9.30;99.90;;;;;;5041996;28;20178;-84
2021/05/28 00:50:40;;;;;;;1999.90;999.90;;;9.20;99.90;;;;;;5041207;28;20259;-84
2021/05/28 00:53:05;;;;;;;1999.90;999.90;;;9.20;99.90;;;;;;5040163;28;20200;-84
2021/05/28 00:55:31;;;;;;;1999.90;999.90;;;9.20;99.90;;;;;;5040443;28;20260;-84
2021/05/28 00:57:57;;;;;;;1999.90;999.90;;;9.20;99.90;;;;;;5040940;28;20191;-83
2021/05/28 01:00:26;;;;;;;1999.90;999.90;;;9.10;99.90;;;;;;5041321;28;20214;-85
2021/05/28 01:02:53;;;;;;;1999.90;999.90;;;9.00;99.90;;;;;;5042675;28;20207;-83
2021/05/28 01:05:19;;;;;;;1999.90;999.90;;;;;;;;;;5039059;28;20268;-85
2021/05/28 01:07:45;;;;;;;1999.90;999.90;;;8.90;99.90;;;;;;5043242;28;20191;-83
2021/05/28 01:10:12;;;;;;;1999.90;999.90;;;8.80;99.90;;;;;;5039667;28;20254;-85
2021/05/28 01:12:38;;;;;;;1999.90;999.90;;;8.90;99.90;;;;;;5042144;28;20184;-85
2021/05/28 01:15:06;;;;;;;1999.90;999.90;;;8.90;99.90;;;;;;5033254;28;20639;-83
2021/05/28 01:17:32;;;;;;;1999.90;999.90;;;8.80;99.90;;;;;;5041423;28;20174;-83
2021/05/28 01:19:57;;;;;;;1999.90;999.90;;;8.80;99.90;;;;;;5040142;28;20187;-84
2021/05/28 01:22:23;;;;;;;1999.90;999.90;;;8.90;99.90;;;;;;5041061;28;20670;-83
2021/05/28 01:24:49;;;;;;;1999.90;999.90;;;8.80;99.90;;;;;;5042716;28;20180;-84
2021/05/28 01:27:17;;;;;;;1999.90;999.90;;;8.90;99.90;;;;;;5042097;28;20300;-84
2021/05/28 01:29:43;;;;;;;1999.90;999.90;;;8.90;99.90;;;;;;5041034;28;20277;-84
2021/05/28 01:32:08;;;;;;;1999.90;999.90;;;8.90;99.90;;;;;;5038672;28;20198;-82
2021/05/28 01:34:34;;;;;;;1999.90;999.90;;;8.80;99.90;;;;;;5037647;28;20181;-85
2021/05/28 01:37:00;;;;;;;1999.90;999.90;;;8.80;99.90;;;;;;5038248;28;20179;-85
2021/05/28 01:39:26;;;;;;;1999.90;999.90;;;8.70;99.90;;;;;;5040119;28;20246;-85
2021/05/28 01:41:51;;;;;;;1999.90;999.90;;;8.70;99.90;;;;;;5038765;28;20196;-84
2021/05/28 01:44:17;;;;;;;1999.90;999.90;;;8.70;99.90;;;;;;5039428;28;20265;-83
2021/05/28 01:46:43;;;;;;;1999.90;999.90;;;8.70;99.90;;;;;;5040344;28;20188;-85
2021/05/28 01:49:09;;;;;;;1999.90;999.90;;;8.70;99.90;;;;;;5038960;28;20202;-84
2021/05/28 01:51:35;;;;;;;1999.90;999.90;;;8.70;99.90;;;;;;5040027;28;20637;-84
2021/05/28 01:54:01;;;;;;;1999.90;999.90;;;8.70;99.90;;;;;;5040957;28;20173;-84
2021/05/28 01:56:27;;;;;;;1999.90;999.90;;;8.70;99.90;;;;;;5012944;28;20190;-84
2021/05/28 01:58:54;;;;;;;1999.90;999.90;;;8.70;99.90;;;;;;5021247;28;20170;-84
2021/05/28 02:01:20;;;;;;;1999.90;999.90;;;8.60;99.90;;;;;;5027530;28;20242;-84
2021/05/28 02:03:46;;;;;;;1999.90;999.90;;;8.60;99.90;;;;;;5017034;28;20194;-84
2021/05/28 02:06:11;;;;;;;1999.90;999.90;;;8.60;99.90;;;;;;5021546;28;20195;-84
2021/05/28 02:08:37;;;;;;;1999.90;999.90;;;8.50;99.90;;;;;;5006790;28;20291;-86
2021/05/28 02:11:04;;;;;;;1999.90;999.90;;;8.50;99.90;;;;;;5038247;28;20211;-84
2021/05/28 02:13:30;;;;;;;1999.90;999.90;;;8.50;99.90;;;;;;5021686;28;20335;-83
2021/05/28 02:15:56;;;;;;;1999.90;999.90;;;8.40;99.90;;;;;;5022706;28;20200;-86
2021/05/28 02:18:22;;;;;;;1999.90;999.90;;;8.30;99.90;;;;;;5040066;28;20177;-85
2021/05/28 02:20:48;;;;;;;1999.90;999.90;;;8.30;99.90;;;;;;5040395;28;20199;-82
2021/05/28 02:23:14;;;;;;;1999.90;999.90;;;;;;;;;;5021988;28;20268;-86
2021/05/28 02:25:40;;;;;;;1999.90;999.90;;;8.20;99.90;;;;;;5050102;28;20165;-83
2021/05/28 02:28:05;;;;;;;1999.90;999.90;;;8.00;99.90;;;;;;5051640;28;20183;-82
2021/05/28 02:30:31;;;;;;;1999.90;999.90;;;7.90;99.90;;;;;;5032707;28;20209;-84
2021/05/28 02:32:57;;;;;;;1999.90;999.90;;;8.10;99.90;;;;;;5032371;28;20180;-84
2021/05/28 02:35:23;;;;;;;1999.90;999.90;;;8.10;99.90;;;;;;5050548;28;20676;-84
2021/05/28 02:37:49;;;;;;;1999.90;999.90;;;8.20;99.90;;;;;;5051933;28;20188;-84
2021/05/28 02:40:15;;;;;;;1999.90;999.90;;;8.20;99.90;;;;;;5050770;28;20542;-84
2021/05/28 02:42:40;;;;;;;1999.90;999.90;;;8.20;99.90;;;;;;5052071;28;20185;-85
2021/05/28 02:45:07;;;;;;;1999.90;999.90;;;8.20;99.90;;;;;;5022129;28;20177;-85
2021/05/28 02:47:33;;;;;;;1999.90;999.90;;;8.30;99.90;;;;;;5036597;28;20207;-85
2021/05/28 02:49:59;;;;;;;1999.90;999.90;;;8.30;99.90;;;;;;5018966;28;20577;-84
2021/05/28 02:52:25;;;;;;;1999.90;999.90;;;8.20;99.90;;;;;;5037205;28;20201;-85
2021/05/28 02:54:51;;;;;;;1999.90;999.90;;;8.20;99.90;;;;;;5037011;28;20180;-85
2021/05/28 02:57:17;;;;;;;1999.90;999.90;;;8.20;99.90;;;;;;5037644;28;20182;-85
2021/05/28 02:59:42;;;;;;;1999.90;999.90;;;8.20;99.90;;;;;;5038075;28;20174;-85
2021/05/28 03:02:08;;;;;;;1999.90;999.90;;;8.20;99.90;;;;;;5021782;28;20220;-84
2021/05/28 03:04:34;;;;;;;1999.90;999.90;;;8.10;99.90;;;;;;5042422;28;20199;-85
2021/05/28 03:06:59;;;;;;;1999.90;999.90;;;8.10;99.90;;;;;;5021415;28;20180;-85
2021/05/28 03:09:26;;;;;;;1999.90;999.90;;;;;;;;;;5038750;28;20214;-85
2021/05/28 03:11:52;;;;;;;1999.90;999.90;;;8.20;99.90;;;;;;5038861;28;20196;-85
2021/05/28 03:14:17;;;;;;;1999.90;999.90;;;7.90;99.90;;;;;;5042209;28;20647;-85
2021/05/28 03:16:44;;;;;;;1999.90;999.90;;;7.90;99.90;;;;;;5040054;28;20211;-85
2021/05/28 03:19:32;;;;;;;1999.90;999.90;;;7.90;99.90;;;;;;5020563;28;20179;-84
2021/05/28 03:22:40;;;;;;;1999.90;999.90;;;7.90;99.90;;;;;;5019033;28;20670;-85
2021/05/28 03:24:46;;;;;;;1999.90;999.90;;;7.90;99.90;;;;;;5028914;28;20287;-85
2021/05/28 03:27:12;;;;;;;1999.90;999.90;;;7.80;99.90;;;;;;5038015;28;20283;-84
2021/05/28 03:29:38;;;;;;;1999.90;999.90;;;7.80;99.90;;;;;;5037429;28;20224;-86
2021/05/28 03:32:04;;;;;;;1999.90;999.90;;;7.80;99.90;;;;;;5037406;28;20730;-84
2021/05/28 03:34:31;;;;;;;1999.90;999.90;;;7.80;99.90;;;;;;5037856;28;20181;-84
2021/05/28 03:36:59;;;;;;;1999.90;999.90;;;7.70;99.90;;;;;;5019339;28;20711;-83
2021/05/28 03:39:24;;;;;;;1999.90;999.90;;;7.80;99.90;;;;;;5037054;28;20176;-85
2021/05/28 03:41:50;;;;;;;1999.90;999.90;;;7.70;99.90;;;;;;5019559;28;20201;-85
2021/05/28 03:44:15;;;;;;;1999.90;999.90;;;7.70;99.90;;;;;;5020038;28;20734;-85
2021/05/28 03:46:41;;;;;;;1999.90;999.90;;;7.70;99.90;;;;;;5038320;28;20208;-85
2021/05/28 03:49:07;;;;;;;1999.90;999.90;;;7.70;99.90;;;;;;5020760;28;20283;-85
2021/05/28 03:51:32;;;;;;;1999.90;999.90;;;7.80;99.90;;;;;;5019318;28;20573;-85
2021/05/28 03:53:58;;;;;;;1999.90;999.90;;;7.80;99.90;;;;;;5037104;28;20176;-85
2021/05/28 03:56:24;;;;;;;1999.90;999.90;;;7.80;99.90;;;;;;5036883;28;20188;-85
2021/05/28 03:58:49;;;;;;;1999.90;999.90;;;7.80;99.90;;;;;;5037423;28;20180;-83
2021/05/28 04:01:15;;;;;;;1999.90;999.90;;;7.70;99.90;;;;;;5018595;28;20712;-83
2021/05/28 04:03:40;;;;;;;1999.90;999.90;;;7.70;99.90;;;;;;5036792;28;20309;-84
2021/05/28 04:06:06;;;;;;;1999.90;999.90;;;7.70;99.90;;;;;;5014338;28;20247;-84
2021/05/28 04:08:32;;;;;;;1999.90;999.90;;;7.70;99.90;;;;;;5031031;28;20187;-84
2021/05/28 04:10:57;;;;;;;1999.90;999.90;;;7.80;99.90;;;;;;5036760;28;20244;-84
2021/05/28 04:13:29;;;;;;;1999.90;999.90;;;7.80;99.90;;;;;;5039223;28;20187;-84
2021/05/28 04:15:56;;;;;;;1999.90;999.90;;;7.80;99.90;;;;;;5038338;28;20178;-84
2021/05/28 04:18:22;;;;;;;1999.90;999.90;;;7.80;99.90;;;;;;5020924;28;20180;-84
2021/05/28 04:20:47;;;;;;;1999.90;999.90;;;7.90;99.90;;;;;;5020452;28;20204;-84
2021/05/28 04:23:13;;;;;;;1999.90;999.90;;;8.10;99.90;;;;;;5016573;28;20216;-85
2021/05/28 04:25:39;;;;;;;1999.90;999.90;;;7.80;99.90;;;;;;5033468;28;20186;-84
2021/05/28 04:28:04;;;;;;;1999.90;999.90;;;7.70;99.90;;;;;;5039226;28;20189;-84
2021/05/28 04:30:30;;;;;;;1999.90;999.90;;;8.00;99.90;;;;;;5037776;28;20283;-84
2021/05/28 04:32:55;;;;;;;1999.90;999.90;;;7.90;99.90;;;;;;5019826;28;20179;-84
2021/05/28 04:35:21;;;;;;;1999.90;999.90;;;7.80;99.90;;;;;;5032964;28;20200;-84
2021/05/28 04:37:47;;;;;;;1999.90;999.90;;;7.90;99.90;;;;;;5035683;28;20183;-84
2021/05/28 04:40:13;;;;;;;1999.90;999.90;;;7.90;99.90;;;;;;5017529;28;20245;-84
2021/05/28 04:42:39;;;;;;;1999.90;999.90;;;7.90;99.90;;;;;;5035858;28;20251;-84
2021/05/28 04:45:05;;;;;;;1999.90;999.90;;;7.90;99.90;;;;;;5019236;28;20212;-84
2021/05/28 04:47:34;;;;;;;1999.90;999.90;;;8.00;99.90;;;;;;5020168;28;20194;-84
2021/05/28 04:50:00;;;;;;;1999.90;999.90;;;8.10;99.90;;;;;;5037682;28;20254;-84
2021/05/28 04:52:25;;;;;;;1999.90;999.90;;;8.20;99.90;;;;;;5037979;28;20203;-86
2021/05/28 04:54:51;;;;;;;1999.90;999.90;;;8.30;99.90;;;;;;5018166;28;20175;-85
2021/05/28 04:57:17;;;;;;;1999.90;999.90;;;8.40;99.90;;;;;;5037923;28;20178;-85
2021/05/28 04:59:42;;;;;;;1999.90;999.90;;;8.50;99.90;;;;;;5041645;28;20184;-84
2021/05/28 05:02:08;;;;;;;1999.90;999.90;;;8.50;99.90;;;;;;5028678;28;20244;-84
2021/05/28 05:04:34;;;;;;;1999.90;999.90;;;8.60;99.90;;;;;;5018656;28;20239;-85
2021/05/28 05:07:00;;;;;;;1999.90;999.90;;;8.60;99.90;;;;;;5014688;28;20570;-84
2021/05/28 05:09:25;;;;;;;1999.90;999.90;;;8.60;99.90;;;;;;5020878;28;20203;-85
2021/05/28 05:11:51;;;;;;;1999.90;999.90;;;8.80;99.90;;;;;;5023065;28;20195;-84
2021/05/28 05:14:17;;;;;;;1999.90;999.90;;;8.90;99.90;;;;;;5028086;28;20173;-85
2021/05/28 05:16:46;;;;;;;1999.90;999.90;;;9.00;99.90;;;;;;5040391;28;20248;-84
2021/05/28 05:19:12;;;;;;;1999.90;999.90;;;9.10;99.90;;;;;;5040360;28;20180;-85
2021/05/28 05:21:39;;;;;;;1999.90;999.90;;;9.00;99.90;;;;;;5039432;28;20206;-84
2021/05/28 05:24:05;;;;;;;1999.90;999.90;;;9.10;99.90;;;;;;5017258;28;20440;-85
2021/05/28 05:26:30;;;;;;;1999.90;999.90;;;9.10;99.90;;;;;;5022918;28;20177;-84
2021/05/28 05:28:56;;;;;;;1999.90;999.90;;;9.20;99.90;;;;;;5021749;28;20627;-84
2021/05/28 05:31:22;;;;;;;1999.90;999.90;;;9.30;99.90;;;;;;5035841;28;20272;-84
2021/05/28 05:33:47;;;;;;;1999.90;999.90;;;9.40;99.90;;;;;;5039542;28;20204;-84
2021/05/28 05:36:13;;;;;;;1999.90;999.90;;;9.60;99.90;;;;;;5031519;28;20233;-85
2021/05/28 05:38:39;;;;;;;1999.90;999.90;;;9.70;99.90;;;;;;5073914;22;20285;-78
2021/05/28 05:41:04;;;;;;;1999.90;999.90;;;9.70;99.90;;;;;;5051568;28;20564;-78
2021/05/28 05:43:30;;;;;;;1999.90;999.90;;;9.90;99.90;;;;;;5055769;28;20183;-79
2021/05/28 05:45:55;;;;;;;1999.90;999.90;;;9.90;99.90;;;;;;5076013;28;20168;-81
2021/05/28 05:48:21;;;;;;;1999.90;999.90;;;10.00;99.90;;;;;;5065174;28;20610;-81
2021/05/28 05:50:47;;;;;;;1999.90;999.90;;;10.10;99.90;;;;;;5054986;28;20189;-80
2021/05/28 05:53:13;;;;;;;1999.90;999.90;;;10.30;99.90;;;;;;5059518;28;20648;-81
2021/05/28 05:55:38;;;;;;;1999.90;999.90;;;10.30;99.90;;;;;;5078108;28;20172;-81
2021/05/28 05:58:04;;;;;;;1999.90;999.90;;;10.40;99.90;;;;;;5077196;28;20241;-81
2021/05/28 06:00:30;;;;;;;1999.90;999.90;;;10.50;99.90;;;;;;5049143;28;20239;-81
2021/05/28 06:02:55;;;;;;;1999.90;999.90;;;10.60;99.90;;;;;;5074516;28;20598;-81
2021/05/28 06:05:21;;;;;;;1999.90;999.90;;;10.70;99.90;;;;;;5059212;28;20180;-81
2021/05/28 06:07:46;;;;;;;1999.90;999.90;;;10.90;99.90;;;;;;5060139;28;20225;-80
2021/05/28 06:10:14;;;;;;;1999.90;999.90;;;10.70;99.90;;;;;;5076572;28;20282;-80
2021/05/28 06:12:40;;;;;;;1999.90;999.90;;;10.90;99.90;;;;;;5077625;28;20173;-80
2021/05/28 06:15:06;;;;;;;1999.90;999.90;;;11.00;99.90;;;;;;5077329;28;20176;-81
2021/05/28 06:17:32;;;;;;;1999.90;999.90;;;11.10;99.90;;;;;;5076952;28;20189;-81
2021/05/28 06:19:57;;;;;;;1999.90;999.90;;;11.10;99.90;;;;;;5076859;28;20250;-81
2021/05/28 06:22:23;;;;;;;1999.90;999.90;;;11.20;99.90;;;;;;5076128;28;20625;-80
2021/05/28 06:24:49;;;;;;;1999.90;999.90;;;11.30;99.90;;;;;;5063828;28;20256;-81
2021/05/28 06:27:15;;;;;;;1999.90;999.90;;;11.40;99.90;;;;;;5076783;28;20208;-81
2021/05/28 06:29:41;;;;;;;1999.90;999.90;;;11.30;99.90;;;;;;5059497;28;20235;-81
2021/05/28 06:32:07;;;;;;;1999.90;999.90;;;11.40;99.90;;;;;;5058159;28;20184;-80
2021/05/28 06:34:33;;;;;;;1999.90;999.90;;;11.40;99.90;;;;;;5075613;28;20181;-81
2021/05/28 06:37:00;;;;;;;1999.90;999.90;;;11.30;99.90;;;;;;5059569;28;20180;-81
2021/05/28 06:39:26;;;;;;;1999.90;999.90;;;11.40;99.90;;;;;;5066120;28;20173;-81
2021/05/28 06:41:52;;;;;;;1999.90;999.90;;;11.40;99.90;;;;;;5076360;28;20184;-81
2021/05/28 06:44:23;;;;;;;1999.90;999.90;;;11.50;99.90;;;;;;5074620;28;20185;-81
2021/05/28 06:46:49;;;;;;;1999.90;999.90;;;11.70;99.90;;;;;;5075942;28;20180;-81
2021/05/28 06:49:15;;;;;;;1999.90;999.90;;;11.60;99.90;;;;;;5076330;28;20196;-81
2021/05/28 06:51:41;;;;;;;1999.90;999.90;;;11.60;99.90;;;;;;5071591;28;20238;-82
2021/05/28 06:54:06;;;;;;;1999.90;999.90;;;11.70;99.90;;;;;;5074900;28;20173;-80
2021/05/28 06:56:32;;;;;;;1999.90;999.90;;;11.80;99.90;;;;;;5070633;28;20181;-80
2021/05/28 06:58:58;;;;;;;1999.90;999.90;;;11.80;99.90;;;;;;5071208;28;20215;-79
2021/05/28 07:01:24;;;;;;;1999.90;999.90;;;11.90;99.90;;;;;;5050549;28;20177;-79
2021/05/28 07:03:50;;;;;;;1999.90;999.90;;;12.00;99.90;;;;;;5071842;28;20181;-79
2021/05/28 07:06:15;;;;;;;1999.90;999.90;;;12.10;99.90;;;;;;5057806;28;20181;-80
2021/05/28 07:08:41;;;;;;;1999.90;999.90;;;12.10;99.90;;;;;;5072558;28;20193;-81
2021/05/28 07:11:07;;;;;;;1999.90;999.90;;;12.30;99.90;;;;;;5058736;28;20653;-80
2021/05/28 07:13:34;;;;;;;1999.90;999.90;;;12.40;99.90;;;;;;5052678;28;20660;-81
2021/05/28 07:15:59;;;;;;;1999.90;999.90;;;12.40;99.90;;;;;;5071157;28;20176;-80
2021/05/28 07:18:25;;;;;;;1999.90;999.90;;;12.60;99.90;;;;;;5073441;28;20204;-81
2021/05/28 07:20:50;;;;;;;1999.90;999.90;;;12.60;99.90;;;;;;5055847;28;20181;-82
2021/05/28 07:23:19;;;;;;;1999.90;999.90;;;13.00;99.90;;;;;;5051057;28;20176;-78
2021/05/28 07:25:45;;;;;;;1999.90;999.90;;;13.00;99.90;;;;;;5062211;28;20197;-80
2021/05/28 07:28:11;;;;;;;1999.90;999.90;;;13.10;99.90;;;;;;5054468;28;20192;-80
2021/05/28 07:30:37;;;;;;;1999.90;999.90;;;13.30;99.90;;;;;;5057058;28;20200;-80
2021/05/28 07:33:03;;;;;;;1999.90;999.90;;;13.30;99.90;;;;;;5074165;28;20181;-80
2021/05/28 07:35:29;;;;;;;1999.90;999.90;;;13.50;99.90;;;;;;5049056;28;20219;-80
2021/05/28 07:37:55;;;;;;;1999.90;999.90;;;13.70;99.90;;;;;;5069731;28;20584;-79
2021/05/28 07:40:21;;;;;;;1999.90;999.90;;;13.80;99.90;;;;;;5075058;28;20172;-79
2021/05/28 07:42:48;;;;;;;1999.90;999.90;;;13.80;99.90;;;;;;5056655;28;20177;-79
2021/05/28 07:45:14;;;;;;;1999.90;999.90;;;13.90;99.90;;;;;;5074627;28;20189;-81
2021/05/28 07:47:40;;;;;;;1999.90;999.90;;;13.80;99.90;;;;;;5052539;28;20201;-80
2021/05/28 07:50:07;;;;;;;1999.90;999.90;;;14.00;99.90;;;;;;5053216;28;20414;-80
2021/05/28 07:52:33;;;;;;;1999.90;999.90;;;14.10;99.90;;;;;;5075074;28;20176;-80
2021/05/28 07:54:59;;;;;;;1999.90;999.90;;;14.20;99.90;;;;;;5056285;28;20174;-80
2021/05/28 07:57:24;;;;;;;1999.90;999.90;;;14.30;99.90;;;;;;5075279;28;20681;-81
2021/05/28 07:59:50;;;;;;;1999.90;999.90;;;14.50;99.90;;;;;;5056521;28;20177;-80
2021/05/28 08:02:18;;;;;;;1999.90;999.90;;;14.70;99.90;;;;;;5074178;28;20256;-81
2021/05/28 08:04:44;;;;;;;1999.90;999.90;;;14.90;99.90;;;;;;5054483;28;20811;-81
2021/05/28 08:07:10;;;;;;;1999.90;999.90;;;14.90;99.90;;;;;;5071362;28;20246;-80
2021/05/28 08:09:36;;;;;;;1999.90;999.90;;;15.00;99.90;;;;;;5074904;28;20621;-80
2021/05/28 08:12:02;;;;;;;1999.90;999.90;;;15.00;99.90;;;;;;5056425;28;20218;-81
2021/05/28 08:14:27;;;;;;;1999.90;999.90;;;15.00;99.90;;;;;;5053659;28;20187;-81
2021/05/28 08:16:53;;;;;;;1999.90;999.90;;;15.10;99.90;;;;;;5055883;28;20186;-81
2021/05/28 08:19:19;;;;;;;1999.90;999.90;;;15.00;99.90;;;;;;5036763;28;20201;-78
2021/05/28 08:21:45;;;;;;;1999.90;999.90;;;15.20;99.90;;;;;;5074326;28;20689;-80
2021/05/28 08:24:10;;;;;;;1999.90;999.90;;;15.30;99.90;;;;;;5056630;28;20670;-81
2021/05/28 08:26:36;;;;;;;1999.90;999.90;;;15.50;99.90;;;;;;5075159;28;20180;-80
2021/05/28 08:29:02;;;;;;;1999.90;999.90;;;15.60;99.90;;;;;;5056708;28;20205;-81
2021/05/28 08:31:28;;;;;;;1999.90;999.90;;;15.60;99.90;;;;;;5056579;28;20186;-80
2021/05/28 08:33:54;;;;;;;1999.90;999.90;;;15.80;99.90;;;;;;5074897;28;20183;-80
2021/05/28 08:36:21;;;;;;;1999.90;999.90;;;16.00;99.90;;;;;;5073176;28;20438;-81
2021/05/28 08:38:46;;;;;;;1999.90;999.90;;;16.20;99.90;;;;;;5074583;28;20235;-81
2021/05/28 08:41:14;;;;;;;1999.90;999.90;;;16.20;99.90;;;;;;5056467;28;20865;-81
2021/05/28 08:43:43;;;;;;;1999.90;999.90;;;16.20;99.90;;;;;;5058949;28;20180;-81
2021/05/28 08:46:08;;;;;;;1999.90;999.90;;;16.30;99.90;;;;;;5079072;28;20223;-80
2021/05/28 08:48:34;;;;;;;1999.90;999.90;;;16.50;99.90;;;;;;5079425;28;20281;-81
2021/05/28 08:51:00;;;;;;;1999.90;999.90;;;16.50;99.90;;;;;;5061411;28;20180;-81
2021/05/28 08:53:28;;;;;;;1999.90;999.90;;;16.60;99.90;;;;;;5061179;28;20258;-81
2021/05/28 08:55:54;;;;;;;1999.90;999.90;;;16.60;99.90;;;;;;5060459;28;20175;-80
2021/05/28 08:58:20;;;;;;;1999.90;999.90;;;16.70;99.90;;;;;;5078252;28;20210;-81
2021/05/28 09:00:47;;;;;;;1999.90;999.90;;;16.70;99.90;;;;;;5079537;28;20181;-82
2021/05/28 09:03:18;;;;;;;1999.90;999.90;;;16.70;99.90;;;;;;5061728;28;20267;-81
2021/05/28 09:05:45;;;;;;;1999.90;999.90;;;16.60;99.90;;;;;;5063667;28;20654;-81
2021/05/28 09:08:10;;;;;;;1999.90;999.90;;;16.60;99.90;;;;;;5079158;28;20243;-81
2021/05/28 09:10:41;;;;;;;1999.90;999.90;;;16.60;99.90;;;;;;5058441;28;20193;-81
2021/05/28 09:13:17;;;;;;;1999.90;999.90;;;16.80;99.90;;;;;;5058171;28;20178;-81
2021/05/28 09:15:47;;;;;;;1999.90;999.90;;;16.80;99.90;;;;;;5067378;28;20198;-81
2021/05/28 09:18:14;;;;;;;1999.90;999.90;;;16.80;99.90;;;;;;5052827;28;20243;-82
2021/05/28 09:20:45;;;;;;;1999.90;999.90;;;16.80;99.90;;;;;;5069404;28;20186;-80
2021/05/28 09:23:15;;;;;;;1999.90;999.90;;;16.90;99.90;;;;;;5059341;28;20264;-80
2021/05/28 09:26:01;;;;;;;1999.90;999.90;;;17.10;99.90;;;;;;5054946;28;20264;-80
2021/05/28 09:28:27;;;;;;;1999.90;999.90;;;17.10;99.90;;;;;;5077566;28;20679;-80
2021/05/28 09:30:58;;;;;;;1999.90;999.90;;;17.10;99.90;;;;;;5077193;28;20247;-81
2021/05/28 09:33:25;;;;;;;1999.90;999.90;;;17.00;99.90;;;;;;5050540;28;20184;-79
2021/05/28 09:35:51;;;;;;;1999.90;999.90;;;17.00;99.90;;;;;;5041312;28;20177;-80
2021/05/28 09:38:22;;;;;;;1999.90;999.90;;;17.00;99.90;;;;;;5042222;28;20647;-80
2021/05/28 09:40:47;;;;;;;1999.90;999.90;;;17.10;99.90;;;;;;5050646;28;20291;-81
2021/05/28 09:43:20;;;;;;;1999.90;999.90;;;17.30;99.90;;;;;;5060212;28;20233;-81
2021/05/28 09:45:47;;;;;;;1999.90;999.90;;;17.30;99.90;;;;;;5077640;28;20187;-81
2021/05/28 09:48:13;;;;;;;1999.90;999.90;;;17.40;99.90;;;;;;5078433;28;20565;-81
2021/05/28 09:50:48;;;;;;;1999.90;999.90;;;17.40;99.90;;;;;;5062307;28;20283;-81
2021/05/28 09:53:36;;;;;;;1999.90;999.90;;;17.30;99.90;;;;;;5078389;28;20180;-81
2021/05/28 09:56:31;;;;;;;1999.90;999.90;;;17.30;99.90;;;;;;5059916;28;20194;-80
2021/05/28 09:59:06;;;;;;;1999.90;999.90;;;17.30;99.90;;;;;;5077231;28;20197;-83
2021/05/28 10:01:53;;;;;;;1999.90;999.90;;;17.40;99.90;;;;;;5051178;28;20234;-82
2021/05/28 10:04:19;;;;;;;1999.90;999.90;;;17.50;99.90;;;;;;5074368;28;20201;-83
2021/05/28 10:06:45;;;;;;;1999.90;999.90;;;17.70;99.90;;;;;;5059259;28;20177;-82
2021/05/28 10:09:12;;;;;;;1999.90;999.90;;;17.90;99.90;;;;;;5076424;28;20212;-83
2021/05/28 10:11:39;;;;;;;1999.90;999.90;;;17.90;99.90;;;;;;5077460;28;20177;-82
2021/05/28 10:14:07;;;;;;;1999.90;999.90;;;17.80;99.90;;;;;;5045326;28;20760;-82
2021/05/28 10:16:32;;;;;;;1999.90;999.90;;;17.90;99.90;;;;;;5075938;28;20195;-83
2021/05/28 10:18:59;;;;;;;1999.90;999.90;;;18.00;99.90;;;;;;5077223;28;20197;-82
2021/05/28 10:21:26;;;;;;;1999.90;999.90;;;17.90;99.90;;;;;;5077599;28;20179;-82
2021/05/28 10:23:52;;;;;;;1999.90;999.90;;;18.00;99.90;;;;;;5067434;28;20177;-82
2021/05/28 10:26:42;;;;;;;1999.90;999.90;;;18.20;99.90;;;;;;5055946;28;20177;-76
2021/05/28 10:29:08;;;;;;;1999.90;999.90;;;18.20;99.90;;;;;;5076196;28;20234;-79
2021/05/28 10:31:59;;;;;;;1999.90;999.90;;;18.30;99.90;;;;;;5057822;28;20223;-78
2021/05/28 10:34:30;;;;;;;1999.90;999.90;;;18.30;99.90;;;;;;5069140;28;20180;-79
2021/05/28 10:36:57;;;;;;;1999.90;999.90;;;18.20;99.90;;;;;;5057714;28;20260;-79
2021/05/28 10:39:28;;;;;;;1999.90;999.90;;;18.30;99.90;;;;;;5057772;28;20185;-79
2021/05/28 10:42:12;;;;;;;1999.90;999.90;;;18.40;99.90;;;;;;5076021;28;20180;-79
2021/05/28 10:44:44;;;;;;;1999.90;999.90;;;18.60;99.90;;;;;;5058047;28;20181;-79
2021/05/28 10:47:13;;;;;;;1999.90;999.90;;;18.40;99.90;;;;;;5053386;28;20185;-79
2021/05/28 10:49:43;;;;;;;1999.90;999.90;;;18.50;99.90;;;;;;5054409;28;20728;-79
2021/05/28 10:52:12;;;;;;;1999.90;999.90;;;18.70;99.90;;;;;;5067205;28;20248;-79
2021/05/28 10:54:40;;;;;;;1999.90;999.90;;;18.60;99.90;;;;;;5071909;28;20172;-77
2021/05/28 10:57:27;;;;;;;1999.90;999.90;;;18.50;99.90;;;;;;5072124;28;20289;-80
2021/05/28 11:00:01;;;;;;;1999.90;999.90;;;18.50;99.90;;;;;;5056684;28;20185;-79
2021/05/28 11:02:44;;;;;;;1999.90;999.90;;;18.50;99.90;;;;;;5056772;28;20174;-79
2021/05/28 11:05:10;;;;;;;1999.90;999.90;;;18.90;99.90;;;;;;5063634;28;20178;-80
2021/05/28 11:07:36;;;;;;;1999.90;999.90;;;18.80;99.90;;;;;;5049719;28;20203;-79
2021/05/28 11:10:22;;;;;;;1999.90;999.90;;;18.60;99.90;;;;;;5055283;28;20201;-79
2021/05/28 11:12:49;;;;;;;1999.90;999.90;;;18.90;99.90;;;;;;5042461;28;20714;-79
2021/05/28 11:15:26;;;;;;;1999.90;999.90;;;19.00;99.90;;;;;;5069255;28;20208;-79
2021/05/28 11:17:52;;;;;;;1999.90;999.90;;;;;;;;;;5056719;28;20205;-79
2021/05/28 11:20:27;;;;;;;1999.90;999.90;;;;;;;;;;5075070;28;20177;-79
2021/05/28 11:22:54;;;;;;;1999.90;999.90;;;;;;;;;;5075231;28;20176;-79
2021/05/28 11:25:22;;;;;;;1999.90;999.90;;;;;;;;;;5074680;28;20192;-80
2021/05/28 11:27:57;;;;;;;1999.90;999.90;;;;;;;;;;5057013;28;20543;-79
2021/05/28 11:30:25;;;;;;;1999.90;999.90;;;;;;;;;;5075517;28;20235;-79
2021/05/28 11:32:51;;;;;;;1999.90;999.90;;;;;;;;;;5070870;28;20177;-80
2021/05/28 11:35:18;;;;;;;1999.90;999.90;;;;;;;;;;5075652;28;20169;-78
2021/05/28 11:38:01;;;;;;;1999.90;999.90;;;;;;;;;;5074189;28;20228;-79
2021/05/28 11:40:31;;;;;;;1999.90;999.90;;;;;;;;;;5074435;28;20230;-79
2021/05/28 11:43:03;;;;;;;1999.90;999.90;;;;;;;;;;5074681;28;20176;-79
2021/05/28 11:45:30;;;;;;;1999.90;999.90;;;;;;;;;;5073852;28;20675;-78
2021/05/28 11:47:56;;;;;;;1999.90;999.90;;;;;;;;;;5074545;28;20196;-79
2021/05/28 11:50:22;;;;;;;1999.90;999.90;;;;;;;;;;5075087;28;20201;-80
2021/05/28 11:53:01;;;;;;;1999.90;999.90;;;;;;;;;;5074671;28;20181;-80
2021/05/28 11:55:31;;;;;;;1999.90;999.90;;;18.90;99.90;;;;;;5074972;28;20173;-80
2021/05/28 11:58:04;;;;;;;1999.90;999.90;;;20.30;99.90;;;;;;5066747;28;20213;-79
2021/05/28 12:00:31;;;;;;;1999.90;999.90;;;20.40;99.90;;;;;;5050998;28;20260;-79
2021/05/28 12:02:58;;;;;;;1999.90;999.90;;;20.30;99.90;;;;;;5074585;28;20630;-80
2021/05/28 12:05:27;;;;;;;1999.90;999.90;;;20.60;99.90;;;;;;5064344;28;20216;-79
2021/05/28 12:07:55;;;;;;;1999.90;999.90;;;20.20;99.90;;;;;;5055061;28;20192;-79
2021/05/28 12:10:22;;;;;;;1999.90;999.90;;;19.90;99.90;;;;;;5034124;28;20652;-80